createdAt,value
2022-09-23T00:00:36.099Z,12.23
2022-09-23T00:02:37.817Z,12.21
2022-09-23T00:04:39.446Z,12.19
2022-09-23T00:06:44.264Z,12.16
2022-09-23T00:08:46.398Z,12.15
2022-09-23T00:10:47.961Z,12.13
2022-09-23T00:12:49.480Z,12.08
2022-09-23T00:14:53.292Z,12.08
2022-09-23T00:16:54.861Z,12.06
2022-09-23T00:18:56.739Z,12.03
2022-09-23T00:21:02.135Z,12.01
2022-09-23T00:23:03.832Z,11.97
2022-09-23T00:25:07.541Z,11.95
2022-09-23T00:27:09.907Z,11.93
2022-09-23T00:29:11.887Z,11.90
2022-09-23T00:31:22.384Z,11.89
2022-09-23T00:33:24.066Z,11.87
2022-09-23T00:35:25.667Z,11.84
2022-09-23T00:37:34.239Z,11.81
2022-09-23T00:39:36.068Z,11.79
2022-09-23T00:41:37.790Z,11.76
2022-09-23T00:43:41.025Z,11.74
2022-09-23T00:45:47.709Z,11.70
2022-09-23T00:48:01.556Z,11.69
2022-09-23T00:50:12.859Z,11.65
2022-09-23T00:52:20.440Z,11.61
2022-09-23T00:54:24.780Z,11.58
2022-09-23T00:56:26.571Z,11.57
2022-09-23T00:58:31.773Z,11.54
2022-09-23T01:00:38.171Z,11.52
2022-09-23T01:02:39.914Z,11.51
2022-09-23T01:04:42.607Z,11.48
2022-09-23T01:06:44.552Z,11.47
2022-09-23T01:08:47.542Z,11.45
2022-09-23T01:11:07.425Z,11.44
2022-09-23T01:13:36.173Z,11.41
2022-09-23T01:15:48.515Z,11.38
2022-09-23T01:17:55.415Z,11.38
2022-09-23T01:20:29.042Z,11.35
2022-09-23T01:22:56.617Z,11.32
2022-09-23T01:25:17.106Z,11.31
2022-09-23T01:27:54.732Z,11.29
2022-09-23T01:30:18.301Z,11.27
2022-09-23T01:32:45.725Z,11.26
2022-09-23T01:34:57.106Z,11.25
2022-09-23T01:37:13.909Z,11.23
2022-09-23T01:39:15.527Z,11.24
2022-09-23T01:41:32.976Z,11.23
2022-09-23T01:43:42.410Z,11.22
2022-09-23T01:45:46.973Z,11.22
2022-09-23T01:47:53.378Z,11.20
2022-09-23T01:50:03.380Z,11.21
2022-09-23T01:52:14.731Z,11.19
2022-09-23T01:54:26.076Z,11.16
2022-09-23T01:57:01.864Z,11.16
2022-09-23T01:59:38.317Z,11.12
2022-09-23T02:01:50.870Z,11.09
2022-09-23T02:04:01.931Z,11.08
2022-09-23T02:06:09.314Z,11.06
2022-09-23T02:08:16.601Z,11.04
2022-09-23T02:10:28.837Z,11.03
2022-09-23T02:12:34.013Z,11.01
2022-09-23T02:14:47.128Z,10.99
2022-09-23T02:16:52.281Z,10.98
2022-09-23T02:19:09.782Z,10.95
2022-09-23T02:21:12.765Z,10.94
2022-09-23T02:23:23.083Z,10.92
2022-09-23T02:25:38.954Z,10.92
2022-09-23T02:28:06.049Z,10.87
2022-09-23T02:30:19.177Z,10.84
2022-09-23T02:32:49.756Z,10.83
2022-09-23T02:35:18.309Z,10.80
2022-09-23T02:37:49.561Z,10.77
2022-09-23T02:39:58.676Z,10.76
2022-09-23T02:42:12.844Z,10.73
2022-09-23T02:44:18.658Z,10.72
2022-09-23T02:46:21.292Z,10.70
2022-09-23T02:48:29.145Z,10.68
2022-09-23T02:50:32.350Z,10.66
2022-09-23T02:52:33.862Z,10.65
2022-09-23T02:54:37.381Z,10.63
2022-09-23T02:56:39.069Z,10.62
2022-09-23T02:58:43.825Z,10.58
2022-09-23T03:01:40.100Z,10.55
2022-09-23T03:04:16.351Z,10.53
2022-09-23T03:06:33.940Z,10.49
2022-09-23T03:08:45.615Z,10.48
2022-09-23T03:11:01.955Z,10.45
2022-09-23T03:13:13.368Z,10.45
2022-09-23T03:15:38.001Z,10.42
2022-09-23T03:17:46.754Z,10.41
2022-09-23T03:19:53.663Z,10.39
2022-09-23T03:22:19.616Z,10.37
2022-09-23T03:24:23.908Z,10.36
2022-09-23T03:26:31.390Z,10.35
2022-09-23T03:28:43.229Z,10.33
2022-09-23T03:30:45.377Z,10.32
2022-09-23T03:32:47.270Z,10.31
2022-09-23T03:34:52.903Z,10.29
2022-09-23T03:37:34.024Z,10.26
2022-09-23T03:39:48.680Z,10.25
2022-09-23T03:41:52.981Z,10.23
2022-09-23T03:44:01.009Z,10.22
2022-09-23T03:46:02.986Z,10.20
2022-09-23T03:48:07.853Z,10.20
2022-09-23T03:50:10.232Z,10.18
2022-09-23T03:52:11.796Z,10.17
2022-09-23T03:54:13.409Z,10.16
2022-09-23T03:56:15.153Z,10.15
2022-09-23T03:58:17.832Z,10.13
2022-09-23T04:00:19.493Z,10.13
2022-09-23T04:02:21.346Z,10.10
2022-09-23T04:04:23.229Z,10.10
2022-09-23T04:06:24.780Z,10.08
2022-09-23T04:08:27.362Z,10.06
2022-09-23T04:10:28.990Z,10.05
2022-09-23T04:12:30.562Z,10.03
2022-09-23T04:14:36.590Z,10.01
2022-09-23T04:16:38.157Z,10.01
2022-09-23T04:18:39.770Z,9.97
2022-09-23T04:20:42.080Z,9.96
2022-09-23T04:22:46.135Z,9.95
2022-09-23T04:24:47.905Z,9.94
2022-09-23T04:26:52.740Z,9.92
2022-09-23T04:28:55.218Z,9.92
2022-09-23T04:30:57.931Z,9.91
2022-09-23T04:32:59.636Z,9.89
2022-09-23T04:35:01.224Z,9.87
2022-09-23T04:37:08.707Z,9.86
2022-09-23T04:39:10.907Z,9.84
2022-09-23T04:41:12.984Z,9.83
2022-09-23T04:43:16.327Z,9.81
2022-09-23T04:45:20.984Z,9.80
2022-09-23T04:47:22.792Z,9.78
2022-09-23T04:49:24.550Z,9.76
2022-09-23T04:51:27.836Z,9.75
2022-09-23T04:53:29.397Z,9.73
2022-09-23T04:55:34.028Z,9.72
2022-09-23T04:57:35.655Z,9.70
2022-09-23T04:59:37.431Z,9.66
2022-09-23T05:01:39.249Z,9.65
2022-09-23T05:03:44.172Z,9.64
2022-09-23T05:05:46.229Z,9.62
2022-09-23T05:07:48.501Z,9.61
2022-09-23T05:09:50.186Z,9.59
2022-09-23T05:11:54.590Z,9.57
2022-09-23T05:13:56.131Z,9.55
2022-09-23T05:16:06.799Z,9.53
2022-09-23T05:18:09.336Z,9.51
2022-09-23T05:20:11.549Z,9.50
2022-09-23T05:22:13.211Z,9.50
2022-09-23T05:24:18.309Z,9.49
2022-09-23T05:26:20.078Z,9.47
2022-09-23T05:28:25.057Z,9.45
2022-09-23T05:30:26.517Z,9.45
2022-09-23T05:32:27.967Z,9.43
2022-09-23T05:34:29.537Z,9.43
2022-09-23T05:36:37.964Z,9.44
2022-09-23T05:38:40.619Z,9.44
2022-09-23T05:40:45.784Z,9.42
2022-09-23T05:42:49.675Z,9.43
2022-09-23T05:44:51.116Z,9.42
2022-09-23T05:46:52.866Z,9.42
2022-09-23T05:49:02.073Z,9.43
2022-09-23T05:51:09.160Z,9.43
2022-09-23T05:53:10.674Z,9.43
2022-09-23T05:55:12.191Z,9.43
2022-09-23T05:57:13.670Z,9.43
2022-09-23T05:59:15.449Z,9.44
2022-09-23T06:01:22.525Z,9.44
2022-09-23T06:03:25.567Z,9.47
2022-09-23T06:05:27.209Z,9.48
2022-09-23T06:07:28.720Z,9.51
2022-09-23T06:09:36.163Z,9.53
2022-09-23T06:11:38.240Z,9.58
2022-09-23T06:13:40.475Z,9.65
2022-09-23T06:15:45.219Z,9.70
2022-09-23T06:17:49.979Z,9.74
2022-09-23T06:19:51.573Z,9.78
2022-09-23T06:21:53.276Z,9.82
2022-09-23T06:23:57.272Z,9.87
2022-09-23T06:26:09.539Z,9.93
2022-09-23T06:28:12.128Z,9.98
2022-09-23T06:30:14.094Z,10.01
2022-09-23T06:32:18.393Z,10.03
2022-09-23T06:34:20.576Z,10.06
2022-09-23T06:36:38.454Z,10.07
2022-09-23T06:38:59.640Z,10.12
2022-09-23T06:41:03.296Z,10.17
2022-09-23T06:43:04.878Z,10.27
2022-09-23T06:45:07.934Z,10.38
2022-09-23T06:47:15.357Z,10.50
2022-09-23T06:49:17.011Z,10.61
2022-09-23T06:51:21.723Z,10.72
2022-09-23T06:53:23.683Z,10.82
2022-09-23T06:55:27.228Z,10.90
2022-09-23T06:57:33.170Z,11.01
2022-09-23T06:59:35.709Z,11.11
2022-09-23T07:01:38.009Z,11.19
2022-09-23T07:03:39.741Z,11.33
2022-09-23T07:05:41.373Z,11.44
2022-09-23T07:07:44.183Z,11.55
2022-09-23T07:09:46.156Z,11.66
2022-09-23T07:11:47.939Z,11.80
2022-09-23T07:13:49.670Z,11.90
2022-09-23T07:15:53.296Z,12.05
2022-09-23T07:17:55.586Z,12.19
2022-09-23T07:19:58.482Z,12.30
2022-09-23T07:22:00.327Z,12.43
2022-09-23T07:24:02.717Z,12.56
2022-09-23T07:26:04.837Z,12.69
2022-09-23T07:28:07.087Z,12.81
2022-09-23T07:30:18.908Z,12.93
2022-09-23T07:32:23.314Z,13.07
2022-09-23T07:34:25.116Z,13.19
2022-09-23T07:36:28.215Z,13.32
2022-09-23T07:38:30.322Z,13.46
2022-09-23T07:40:32.236Z,13.59
2022-09-23T07:42:36.667Z,13.72
2022-09-23T07:44:38.859Z,13.86
2022-09-23T07:46:41.028Z,13.98
2022-09-23T07:48:44.068Z,14.12
2022-09-23T07:50:45.599Z,14.26
2022-09-23T07:52:47.297Z,14.41
2022-09-23T07:54:49.025Z,14.57
2022-09-23T07:56:50.522Z,14.72
2022-09-23T07:59:05.077Z,14.91
2022-09-23T08:01:09.814Z,15.12
2022-09-23T08:03:11.928Z,15.31
2022-09-23T08:05:16.834Z,15.51
2022-09-23T08:07:19.127Z,15.72
2022-09-23T08:09:23.826Z,15.94
2022-09-23T08:11:26.648Z,16.17
2022-09-23T08:13:28.353Z,16.39
2022-09-23T08:15:31.251Z,16.65
2022-09-23T08:17:33.016Z,16.89
2022-09-23T08:19:34.694Z,17.14
2022-09-23T08:21:38.298Z,17.37
2022-09-23T08:23:39.843Z,17.61
2022-09-23T08:25:47.508Z,17.83
2022-09-23T08:27:49.378Z,18.02
2022-09-23T08:29:51.065Z,18.22
2022-09-23T08:31:53.333Z,18.40
2022-09-23T08:33:57.562Z,18.56
2022-09-23T08:36:01.913Z,18.73
2022-09-23T08:38:08.063Z,18.85
2022-09-23T08:40:10.237Z,18.99
2022-09-23T08:42:20.274Z,19.15
2022-09-23T08:44:27.388Z,19.28
2022-09-23T08:46:37.658Z,19.44
2022-09-23T08:48:48.275Z,19.59
2022-09-23T08:50:58.547Z,19.74
2022-09-23T08:53:04.909Z,19.90
2022-09-23T08:55:12.596Z,20.04
2022-09-23T08:57:41.551Z,20.18
2022-09-23T08:59:48.309Z,20.36
2022-09-23T09:02:14.828Z,20.51
2022-09-23T09:04:16.687Z,20.64
2022-09-23T09:06:27.754Z,20.78
2022-09-23T09:08:52.684Z,20.91
2022-09-23T09:10:55.668Z,21.03
2022-09-23T09:13:12.107Z,21.13
2022-09-23T09:15:21.229Z,21.20
2022-09-23T09:18:04.393Z,21.28
2022-09-23T09:20:23.371Z,21.37
2022-09-23T09:22:38.125Z,21.45
2022-09-23T09:24:40.281Z,21.53
2022-09-23T09:26:41.964Z,21.62
2022-09-23T09:29:30.863Z,21.70
2022-09-23T09:31:42.445Z,21.83
2022-09-23T09:34:20.277Z,21.94
2022-09-23T09:36:33.103Z,22.09
2022-09-23T09:38:38.023Z,22.21
2022-09-23T09:40:46.628Z,22.32
2022-09-23T09:42:49.842Z,22.43
2022-09-23T09:44:59.163Z,22.54
2022-09-23T09:47:28.672Z,22.64
2022-09-23T09:49:45.891Z,22.74
2022-09-23T09:51:47.581Z,22.87
2022-09-23T09:53:52.821Z,22.95
2022-09-23T09:56:12.893Z,23.04
2022-09-23T09:58:16.457Z,23.14
2022-09-23T10:00:25.775Z,23.22
2022-09-23T10:02:33.904Z,23.31
2022-09-23T10:04:35.886Z,23.41
2022-09-23T10:06:37.509Z,23.49
2022-09-23T10:08:39.247Z,23.56
2022-09-23T10:10:58.410Z,23.64
2022-09-23T10:13:15.200Z,23.71
2022-09-23T10:15:33.273Z,23.80
2022-09-23T10:17:38.486Z,23.88
2022-09-23T10:19:47.069Z,23.98
2022-09-23T10:21:54.508Z,24.08
2022-09-23T10:23:58.525Z,24.16
2022-09-23T10:26:05.103Z,24.25
2022-09-23T10:28:46.581Z,24.34
2022-09-23T10:31:08.765Z,24.43
2022-09-23T10:33:26.907Z,24.52
2022-09-23T10:35:30.339Z,24.61
2022-09-23T10:37:45.323Z,24.70
2022-09-23T10:40:05.723Z,24.79
2022-09-23T10:42:47.327Z,24.84
2022-09-23T10:45:29.988Z,24.95
2022-09-23T10:48:03.154Z,25.03
2022-09-23T10:50:23.089Z,25.09
2022-09-23T10:52:59.167Z,25.18
2022-09-23T10:55:27.725Z,25.25
2022-09-23T10:57:55.135Z,25.32
2022-09-23T11:00:10.423Z,25.39
2022-09-23T11:02:34.140Z,25.45
2022-09-23T11:04:55.254Z,25.45
2022-09-23T11:07:14.195Z,25.47
2022-09-23T11:09:23.012Z,25.50
2022-09-23T11:11:46.402Z,25.48
2022-09-23T11:14:25.750Z,25.48
2022-09-23T11:16:59.821Z,25.45
2022-09-23T11:19:21.900Z,25.46
2022-09-23T11:22:05.360Z,25.44
2022-09-23T11:24:35.576Z,25.43
2022-09-23T11:27:13.233Z,25.46
2022-09-23T11:29:33.783Z,25.49
2022-09-23T11:32:02.886Z,25.52
2022-09-23T11:34:25.092Z,25.54
2022-09-23T11:36:34.685Z,25.58
2022-09-23T11:38:42.832Z,25.60
2022-09-23T11:40:54.708Z,25.62
2022-09-23T11:43:01.389Z,25.62
2022-09-23T11:45:37.715Z,25.65
2022-09-23T11:47:53.042Z,25.88
2022-09-23T11:50:05.089Z,25.88
2022-09-23T11:52:28.707Z,25.88
2022-09-23T11:54:53.017Z,25.92
2022-09-23T11:56:59.642Z,25.97
2022-09-23T11:59:10.386Z,26.01
2022-09-23T12:01:35.660Z,26.04
2022-09-23T12:04:10.217Z,26.07
2022-09-23T12:06:26.206Z,26.10
2022-09-23T12:08:38.967Z,26.13
2022-09-23T12:10:45.947Z,26.20
2022-09-23T12:12:56.503Z,26.22
2022-09-23T12:15:04.070Z,26.26
2022-09-23T12:17:27.545Z,26.26
2022-09-23T12:19:51.690Z,26.27
2022-09-23T12:22:24.824Z,26.27
2022-09-23T12:24:43.331Z,26.29
2022-09-23T12:26:50.213Z,26.30
2022-09-23T12:28:58.703Z,26.29
2022-09-23T12:31:03.358Z,26.30
2022-09-23T12:33:22.692Z,26.29
2022-09-23T12:35:35.611Z,26.33
2022-09-23T12:37:40.071Z,26.37
2022-09-23T12:39:46.760Z,26.41
2022-09-23T12:41:54.373Z,26.46
2022-09-23T12:44:13.513Z,26.52
2022-09-23T12:46:21.899Z,26.58
2022-09-23T12:48:43.250Z,26.65
2022-09-23T12:50:52.352Z,26.75
2022-09-23T12:52:57.215Z,26.85
2022-09-23T12:55:27.444Z,26.93
2022-09-23T12:57:34.990Z,27.00
2022-09-23T12:59:52.485Z,27.06
2022-09-23T13:01:55.219Z,27.14
2022-09-23T13:04:17.497Z,27.17
2022-09-23T13:06:37.774Z,27.22
2022-09-23T13:08:41.698Z,27.28
2022-09-23T13:10:49.757Z,27.31
2022-09-23T13:12:55.810Z,27.34
2022-09-23T13:15:03.470Z,27.37
2022-09-23T13:17:05.355Z,27.39
2022-09-23T13:19:26.952Z,27.39
2022-09-23T13:21:45.099Z,27.40
2022-09-23T13:24:20.673Z,27.42
2022-09-23T13:26:25.518Z,27.45
2022-09-23T13:28:28.732Z,27.50
2022-09-23T13:30:30.435Z,27.53
2022-09-23T13:32:46.192Z,27.55
2022-09-23T13:35:18.918Z,27.59
2022-09-23T13:37:24.892Z,27.60
2022-09-23T13:39:28.781Z,27.63
2022-09-23T13:41:30.533Z,27.62
2022-09-23T13:43:41.366Z,27.61
2022-09-23T13:45:43.717Z,27.62
2022-09-23T13:47:48.441Z,27.62
2022-09-23T13:49:50.703Z,27.63
2022-09-23T13:51:54.162Z,27.63
2022-09-23T13:53:57.789Z,27.60
2022-09-23T13:56:14.325Z,27.56
2022-09-23T13:58:20.845Z,27.55
2022-09-23T14:00:23.851Z,27.50
2022-09-23T14:02:25.858Z,27.46
2022-09-23T14:04:27.559Z,27.40
2022-09-23T14:06:39.532Z,27.35
2022-09-23T14:08:50.741Z,27.28
2022-09-23T14:10:53.169Z,27.24
2022-09-23T14:12:56.418Z,27.22
2022-09-23T14:14:58.232Z,27.18
2022-09-23T14:17:00.556Z,27.14
2022-09-23T14:19:02.532Z,27.12
2022-09-23T14:21:04.488Z,27.07
2022-09-23T14:23:10.853Z,27.03
2022-09-23T14:25:14.683Z,27.00
2022-09-23T14:27:23.948Z,26.95
2022-09-23T14:29:28.716Z,26.90
2022-09-23T14:31:30.908Z,26.87
2022-09-23T14:33:34.340Z,26.82
2022-09-23T14:35:44.851Z,26.75
2022-09-23T14:38:07.933Z,26.71
2022-09-23T14:40:16.784Z,26.60
2022-09-23T14:42:19.802Z,26.56
2022-09-23T14:44:25.017Z,26.52
2022-09-23T14:46:29.649Z,26.46
2022-09-23T14:48:34.175Z,26.38
2022-09-23T14:50:36.978Z,26.33
2022-09-23T14:52:48.909Z,26.24
2022-09-23T14:54:50.884Z,26.18
2022-09-23T14:56:54.749Z,26.11
2022-09-23T14:59:00.186Z,26.03
2022-09-23T15:01:02.458Z,25.97
2022-09-23T15:03:15.353Z,25.90
2022-09-23T15:05:32.091Z,25.83
2022-09-23T15:07:37.917Z,25.75
2022-09-23T15:09:42.179Z,25.69
2022-09-23T15:11:44.391Z,25.62
2022-09-23T15:13:50.665Z,25.56
2022-09-23T15:15:54.555Z,25.49
2022-09-23T15:18:03.973Z,25.41
2022-09-23T15:20:14.304Z,25.34
2022-09-23T15:22:16.918Z,25.27
2022-09-23T15:24:42.823Z,25.16
2022-09-23T15:26:49.996Z,25.09
2022-09-23T15:28:54.187Z,25.03
2022-09-23T15:30:56.464Z,24.95
2022-09-23T15:32:58.238Z,24.87
2022-09-23T15:34:59.873Z,24.80
2022-09-23T15:37:01.558Z,24.74
2022-09-23T15:39:05.965Z,24.66
2022-09-23T15:41:07.583Z,24.59
2022-09-23T15:43:21.854Z,24.51
2022-09-23T15:45:36.736Z,24.44
2022-09-23T15:47:38.242Z,24.37
2022-09-23T15:49:39.979Z,24.32
2022-09-23T15:51:42.942Z,24.25
2022-09-23T15:53:44.728Z,24.19
2022-09-23T15:55:46.392Z,24.13
2022-09-23T15:57:48.681Z,24.07
2022-09-23T15:59:50.462Z,23.99
2022-09-23T16:01:53.470Z,23.93
2022-09-23T16:03:55.848Z,23.86
2022-09-23T16:06:01.081Z,23.79
2022-09-23T16:08:09.173Z,23.73
2022-09-23T16:10:10.883Z,23.69
2022-09-23T16:12:12.600Z,23.62
2022-09-23T16:14:16.529Z,23.58
2022-09-23T16:16:21.263Z,23.52
2022-09-23T16:18:23.024Z,23.47
2022-09-23T16:20:29.131Z,23.41
2022-09-23T16:22:31.027Z,23.36
2022-09-23T16:24:32.912Z,23.30
2022-09-23T16:26:35.963Z,23.26
2022-09-23T16:28:37.831Z,23.21
2022-09-23T16:30:39.380Z,23.15
2022-09-23T16:32:41.141Z,23.13
2022-09-23T16:34:53.286Z,23.06
2022-09-23T16:36:54.951Z,23.00
2022-09-23T16:38:57.339Z,22.96
2022-09-23T16:41:00.591Z,22.90
2022-09-23T16:43:05.369Z,22.85
2022-09-23T16:45:07.724Z,22.78
2022-09-23T16:47:09.710Z,22.74
2022-09-23T16:49:12.182Z,22.70
2022-09-23T16:51:20.524Z,22.63
2022-09-23T16:53:23.670Z,22.58
2022-09-23T16:55:29.875Z,22.54
2022-09-23T16:57:31.442Z,22.49
2022-09-23T16:59:53.133Z,22.43
2022-09-23T17:02:13.180Z,22.37
2022-09-23T17:04:16.992Z,22.29
2022-09-23T17:06:19.337Z,22.24
2022-09-23T17:08:20.994Z,22.19
2022-09-23T17:10:22.577Z,22.13
2022-09-23T17:12:32.575Z,22.05
2022-09-23T17:14:34.668Z,22.02
2022-09-23T17:16:36.356Z,21.93
2022-09-23T17:18:41.136Z,21.87
2022-09-23T17:20:42.839Z,21.81
2022-09-23T17:22:44.413Z,21.76
2022-09-23T17:24:45.985Z,21.69
2022-09-23T17:26:53.266Z,21.64
2022-09-23T17:28:56.572Z,21.54
2022-09-23T17:31:00.084Z,21.46
2022-09-23T17:33:01.615Z,21.41
2022-09-23T17:35:06.820Z,21.35
2022-09-23T17:37:08.469Z,21.26
2022-09-23T17:39:10.839Z,21.21
2022-09-23T17:41:14.315Z,21.15
2022-09-23T17:43:20.185Z,21.08
2022-09-23T17:45:21.748Z,20.99
2022-09-23T17:47:23.432Z,20.92
2022-09-23T17:49:25.186Z,20.86
2022-09-23T17:51:27.117Z,20.78
2022-09-23T17:53:35.062Z,20.71
2022-09-23T17:55:37.078Z,20.63
2022-09-23T17:57:38.638Z,20.56
2022-09-23T17:59:40.373Z,20.50
2022-09-23T18:01:41.898Z,20.43
2022-09-23T18:03:43.920Z,20.34
2022-09-23T18:05:46.440Z,20.27
2022-09-23T18:07:48.088Z,20.19
2022-09-23T18:09:49.593Z,20.12
2022-09-23T18:11:51.299Z,20.05
2022-09-23T18:13:57.995Z,19.97
2022-09-23T18:16:02.358Z,19.88
2022-09-23T18:18:05.668Z,19.82
2022-09-23T18:20:08.006Z,19.75
2022-09-23T18:22:09.459Z,19.67
2022-09-23T18:26:34.367Z,19.51
2022-09-23T18:28:35.965Z,19.44
2022-09-23T18:30:37.648Z,19.35
2022-09-23T18:32:39.570Z,19.29
2022-09-23T18:34:44.099Z,19.22
2022-09-23T18:36:45.787Z,19.16
2022-09-23T18:38:51.049Z,19.10
2022-09-23T18:40:56.987Z,19.01
2022-09-23T18:42:58.575Z,18.94
2022-09-23T18:45:00.260Z,18.88
2022-09-23T18:47:01.856Z,18.80
2022-09-23T18:49:22.272Z,18.75
2022-09-23T18:51:26.127Z,18.70
2022-09-23T18:53:27.623Z,18.62
2022-09-23T18:55:29.063Z,18.57
2022-09-23T18:57:30.926Z,18.51
2022-09-23T18:59:36.935Z,18.45
2022-09-23T19:01:38.888Z,18.39
2022-09-23T19:03:41.108Z,18.34
2022-09-23T19:05:42.532Z,18.30
2022-09-23T19:07:44.223Z,18.25
2022-09-23T19:09:45.938Z,18.20
2022-09-23T19:11:52.112Z,18.15
2022-09-23T19:14:02.527Z,18.10
2022-09-23T19:16:14.878Z,18.04
2022-09-23T19:18:17.469Z,17.99
2022-09-23T19:20:19.164Z,17.94
2022-09-23T19:22:21.211Z,17.89
2022-09-23T19:24:22.899Z,17.85
2022-09-23T19:26:27.546Z,17.82
2022-09-23T19:28:29.341Z,17.78
2022-09-23T19:30:30.953Z,17.73
2022-09-23T19:32:34.716Z,17.69
2022-09-23T19:34:37.911Z,17.64
2022-09-23T19:36:42.224Z,17.61
2022-09-23T19:38:44.405Z,17.55
2022-09-23T19:40:49.921Z,17.52
2022-09-23T19:42:54.060Z,17.48
2022-09-23T19:44:55.767Z,17.45
2022-09-23T19:46:57.801Z,17.41
2022-09-23T19:49:00.575Z,17.36
2022-09-23T19:51:02.669Z,17.32
2022-09-23T19:53:05.682Z,17.29
2022-09-23T19:55:07.833Z,17.24
2022-09-23T19:57:09.530Z,17.22
2022-09-23T19:59:14.180Z,17.16
2022-09-23T20:01:22.998Z,17.12
2022-09-23T20:03:26.052Z,17.08
2022-09-23T20:05:35.636Z,17.05
2022-09-23T20:07:40.245Z,17.02
2022-09-23T20:09:41.948Z,17.01
2022-09-23T20:11:44.265Z,16.98
2022-09-23T20:13:47.555Z,16.95
2022-09-23T20:15:49.362Z,16.93
2022-09-23T20:17:51.654Z,16.90
2022-09-23T20:19:57.829Z,16.87
2022-09-23T20:22:19.253Z,16.86
2022-09-23T20:24:20.861Z,16.82
2022-09-23T20:26:41.040Z,16.81
2022-09-23T20:28:42.839Z,16.77
2022-09-23T20:30:44.453Z,16.75
2022-09-23T20:32:48.119Z,16.73
2022-09-23T20:34:49.879Z,16.72
2022-09-23T20:36:51.355Z,16.69
2022-09-23T20:39:01.991Z,16.66
2022-09-23T20:41:03.602Z,16.64
2022-09-23T20:43:05.303Z,16.62
2022-09-23T20:45:07.572Z,16.59
2022-09-23T20:47:14.012Z,16.57
2022-09-23T20:49:16.712Z,16.55
2022-09-23T20:51:20.104Z,16.51
2022-09-23T20:53:24.486Z,16.50
2022-09-23T20:55:26.161Z,16.48
2022-09-23T20:57:29.743Z,16.46
2022-09-23T20:59:31.812Z,16.42
2022-09-23T21:01:37.314Z,16.40
2022-09-23T21:03:41.219Z,16.39
2022-09-23T21:05:42.806Z,16.38
2022-09-23T21:07:47.398Z,16.34
2022-09-23T21:09:48.971Z,16.33
2022-09-23T21:11:52.207Z,16.32
2022-09-23T21:14:03.460Z,16.30
2022-09-23T21:16:11.390Z,16.27
2022-09-23T21:18:16.315Z,16.26
2022-09-23T21:20:21.449Z,16.24
2022-09-23T21:22:23.455Z,16.23
2022-09-23T21:25:00.397Z,16.20
2022-09-23T21:26:50.396Z,16.18
2022-09-23T21:28:55.543Z,16.15
2022-09-23T21:31:12.187Z,16.13
2022-09-23T21:33:14.566Z,16.12
2022-09-23T21:35:18.924Z,16.10
2022-09-23T21:37:21.609Z,16.10
2022-09-23T21:39:23.513Z,16.09
2022-09-23T21:41:25.603Z,16.08
2022-09-23T21:43:31.613Z,16.06
2022-09-23T21:45:33.878Z,16.04
2022-09-23T21:47:35.369Z,16.04
2022-09-23T21:49:36.954Z,16.02
2022-09-23T21:51:42.949Z,16.01
2022-09-23T21:53:45.240Z,15.99
2022-09-23T21:55:48.693Z,15.99
2022-09-23T21:57:51.562Z,15.96
2022-09-23T21:59:54.241Z,15.95
2022-09-23T22:01:55.791Z,15.93
2022-09-23T22:04:01.868Z,15.93
2022-09-23T22:06:05.059Z,15.92
2022-09-23T22:08:11.959Z,15.91
2022-09-23T22:10:13.600Z,15.88
2022-09-23T22:12:21.197Z,15.87
2022-09-23T22:14:26.040Z,15.86
2022-09-23T22:16:29.215Z,15.83
2022-09-23T22:18:30.963Z,15.84
2022-09-23T22:20:33.965Z,15.82
2022-09-23T22:22:35.927Z,15.80
2022-09-23T22:24:37.554Z,15.79
2022-09-23T22:26:41.735Z,15.79
2022-09-23T22:29:02.261Z,15.77
2022-09-23T22:31:22.681Z,15.76
2022-09-23T22:33:24.258Z,15.75
2022-09-23T22:35:26.005Z,15.74
2022-09-23T22:37:30.458Z,15.74
2022-09-23T22:39:34.428Z,15.72
2022-09-23T22:41:36.455Z,15.72
2022-09-23T22:43:38.332Z,15.71
2022-09-23T22:45:40.048Z,15.71
2022-09-23T22:47:47.034Z,15.70
2022-09-23T22:49:55.573Z,15.69
2022-09-23T22:51:57.297Z,15.68
2022-09-23T22:53:58.842Z,15.67
2022-09-23T22:56:01.251Z,15.67
2022-09-23T22:58:21.201Z,15.66
2022-09-23T23:00:24.382Z,15.65
2022-09-23T23:02:27.021Z,15.65
2022-09-23T23:04:29.993Z,15.64
2022-09-23T23:06:36.683Z,15.64
2022-09-23T23:08:38.742Z,15.62
2022-09-23T23:10:42.181Z,15.63
2022-09-23T23:12:46.866Z,15.62
2022-09-23T23:14:49.513Z,15.62
2022-09-23T23:16:51.046Z,15.60
2022-09-23T23:18:53.810Z,15.62
2022-09-23T23:20:57.350Z,15.62
2022-09-23T23:23:02.124Z,15.61
2022-09-23T23:25:06.534Z,15.60
2022-09-23T23:27:08.072Z,15.59
2022-09-23T23:29:11.007Z,15.60
2022-09-23T23:31:15.885Z,15.59
2022-09-23T23:33:17.429Z,15.58
2022-09-23T23:35:19.000Z,15.58
2022-09-23T23:37:21.171Z,15.57
2022-09-23T23:39:26.746Z,15.58
2022-09-23T23:41:28.888Z,15.57
2022-09-23T23:43:31.964Z,15.54
2022-09-23T23:45:33.626Z,15.54
2022-09-23T23:47:35.573Z,15.53
2022-09-23T23:49:37.122Z,15.52
2022-09-23T23:51:41.747Z,15.50
2022-09-23T23:53:43.898Z,15.49
2022-09-23T23:55:45.855Z,15.50
2022-09-23T23:57:51.346Z,15.47
2022-09-23T23:59:55.945Z,15.46
